Terminal Aerodrome Forecast
Issued by NWS

Home | Current Version | Previous Version | Graphics & Text | Print | Product List | Glossary On
Versions: 1 2 3 4 5 6 7 8 9 10 11 12 13 14 15
652
FTUS43 KICT 231720
TAFCNU
TAF
KCNU 231720Z 2318/2418 01015G22KT P6SM SCT080
     FM232000 01016G24KT P6SM VCTS BKN080CB
     FM232300 01016G24KT P6SM VCSH BKN100
     FM240000 36013KT P6SM SCT120
     FM240300 36007KT P6SM FEW200
     FM241200 VRB03KT P6SM FEW250=

USA.gov is the U.S. government's official web portal to all federal, state and local government web resources and services.